createdAt,value
2023-03-13T00:00:25.149Z,-1.49
2023-03-13T00:02:55.745Z,-1.50
2023-03-13T00:05:24.453Z,-1.50
2023-03-13T00:07:54.474Z,-1.52
2023-03-13T00:10:23.258Z,-1.55
2023-03-13T00:12:51.774Z,-1.56
2023-03-13T00:15:27.426Z,-1.59
2023-03-13T00:17:55.897Z,-1.62
2023-03-13T00:20:24.381Z,-1.65
2023-03-13T00:22:52.874Z,-1.67
2023-03-13T00:25:21.939Z,-1.69
2023-03-13T00:27:51.035Z,-1.73
2023-03-13T00:30:23.318Z,-1.77
2023-03-13T00:32:57.187Z,-1.80
2023-03-13T00:35:25.733Z,-1.82
2023-03-13T00:37:54.961Z,-1.83
2023-03-13T00:40:27.548Z,-1.85
2023-03-13T00:42:57.911Z,-1.88
2023-03-13T00:45:27.193Z,-1.90
2023-03-13T00:47:56.176Z,-1.92
2023-03-13T00:50:29.089Z,-1.97
2023-03-13T00:52:57.839Z,-2.02
2023-03-13T00:55:26.289Z,-2.06
2023-03-13T00:57:54.898Z,-2.10
2023-03-13T01:00:23.555Z,-2.14
2023-03-13T01:02:55.184Z,-2.18
2023-03-13T01:05:24.234Z,-2.22
2023-03-13T01:07:53.239Z,-2.26
2023-03-13T01:10:27.245Z,-2.29
2023-03-13T01:12:57.196Z,-2.30
2023-03-13T01:15:26.502Z,-2.31
2023-03-13T01:17:55.438Z,-2.33
2023-03-13T01:20:30.223Z,-2.36
2023-03-13T01:22:59.495Z,-2.37
2023-03-13T01:25:37.612Z,-2.34
2023-03-13T01:28:12.492Z,-2.30
2023-03-13T01:30:41.254Z,-2.26
2023-03-13T01:33:18.707Z,-2.24
2023-03-13T01:35:53.218Z,-2.23
2023-03-13T01:38:22.289Z,-2.23
2023-03-13T01:40:51.518Z,-2.22
2023-03-13T01:43:26.987Z,-2.22
2023-03-13T01:46:01.979Z,-2.23
2023-03-13T01:49:16.612Z,-2.34
2023-03-13T01:52:04.730Z,-2.40
2023-03-13T01:55:16.501Z,-2.42
2023-03-13T01:57:51.057Z,-2.42
2023-03-13T02:00:25.303Z,-2.42
2023-03-13T02:02:56.095Z,-2.41
2023-03-13T02:05:26.435Z,-2.40
2023-03-13T02:07:59.676Z,-2.40
2023-03-13T02:10:28.987Z,-2.42
2023-03-13T02:12:59.618Z,-2.42
2023-03-13T02:15:32.133Z,-2.43
2023-03-13T02:18:01.023Z,-2.45
2023-03-13T02:20:35.762Z,-2.43
2023-03-13T02:23:44.275Z,-2.43
2023-03-13T02:26:12.930Z,-2.48
2023-03-13T02:28:47.069Z,-2.49
2023-03-13T02:31:19.610Z,-2.47
2023-03-13T02:33:49.060Z,-2.45
2023-03-13T02:36:21.215Z,-2.43
2023-03-13T02:38:59.916Z,-2.42
2023-03-13T02:41:28.505Z,-2.40
2023-03-13T02:44:01.522Z,-2.41
2023-03-13T02:46:32.946Z,-2.42
2023-03-13T02:49:20.393Z,-2.42
2023-03-13T02:51:49.585Z,-2.41
2023-03-13T02:54:32.505Z,-2.42
2023-03-13T02:57:02.265Z,-2.45
2023-03-13T02:59:31.277Z,-2.46
2023-03-13T03:01:59.796Z,-2.49
2023-03-13T03:04:28.556Z,-2.50
2023-03-13T03:06:58.165Z,-2.54
2023-03-13T03:09:27.096Z,-2.59
2023-03-13T03:12:04.110Z,-2.68
2023-03-13T03:14:34.589Z,-2.76
2023-03-13T03:17:03.401Z,-2.82
2023-03-13T03:19:38.391Z,-2.90
2023-03-13T03:22:07.881Z,-2.95
2023-03-13T03:24:36.358Z,-2.96
2023-03-13T03:27:05.556Z,-2.94
2023-03-13T03:29:39.182Z,-2.88
2023-03-13T03:32:08.029Z,-2.85
2023-03-13T03:34:37.010Z,-2.84
2023-03-13T03:37:07.842Z,-2.83
2023-03-13T03:39:38.050Z,-2.82
2023-03-13T03:42:06.964Z,-2.85
2023-03-13T03:44:36.769Z,-2.89
2023-03-13T03:47:06.364Z,-2.90
2023-03-13T03:49:37.868Z,-2.93
2023-03-13T03:52:06.796Z,-2.96
2023-03-13T03:54:39.528Z,-2.98
2023-03-13T03:57:08.243Z,-3.00
2023-03-13T03:59:39.579Z,-3.01
2023-03-13T04:02:10.192Z,-3.03
2023-03-13T04:04:39.057Z,-3.04
2023-03-13T04:07:14.812Z,-3.04
2023-03-13T04:09:43.347Z,-3.01
2023-03-13T04:12:18.660Z,-2.96
2023-03-13T04:14:49.322Z,-2.94
2023-03-13T04:17:18.086Z,-2.91
2023-03-13T04:19:48.856Z,-2.88
2023-03-13T04:22:18.050Z,-2.87
2023-03-13T04:24:51.748Z,-2.85
2023-03-13T04:27:21.931Z,-2.82
2023-03-13T04:29:51.710Z,-2.80
2023-03-13T04:32:38.185Z,-2.78
2023-03-13T04:35:24.987Z,-2.78
2023-03-13T04:38:23.611Z,-2.78
2023-03-13T04:41:00.834Z,-2.79
2023-03-13T04:43:59.293Z,-2.79
2023-03-13T04:47:03.821Z,-2.81
2023-03-13T04:49:41.427Z,-2.83
2023-03-13T04:52:25.968Z,-2.83
2023-03-13T04:55:17.450Z,-2.82
2023-03-13T04:57:59.520Z,-2.80
2023-03-13T05:01:02.365Z,-2.77
2023-03-13T05:03:48.771Z,-2.72
2023-03-13T05:06:52.426Z,-2.64
2023-03-13T05:09:49.043Z,-2.52
2023-03-13T05:12:40.513Z,-2.38
2023-03-13T05:15:26.015Z,-2.24
2023-03-13T05:18:13.591Z,-2.09
2023-03-13T05:21:09.188Z,-1.92
2023-03-13T05:23:56.668Z,-1.73
2023-03-13T05:26:52.648Z,-1.54
2023-03-13T05:29:33.171Z,-1.37
2023-03-13T05:32:12.363Z,-1.22
2023-03-13T05:34:59.932Z,-1.07
2023-03-13T05:37:51.672Z,-0.92
2023-03-13T05:40:58.374Z,-0.78
2023-03-13T05:43:39.790Z,-0.65
2023-03-13T05:46:35.312Z,-0.48
2023-03-13T05:49:26.974Z,-0.33
2023-03-13T05:52:24.631Z,-0.19
2023-03-13T05:55:13.350Z,-0.07
2023-03-13T05:58:04.923Z,0.05
2023-03-13T06:01:08.509Z,0.14
2023-03-13T06:03:57.367Z,0.27
2023-03-13T06:06:27.351Z,0.38
2023-03-13T06:09:04.372Z,0.45
2023-03-13T06:11:35.382Z,0.50
2023-03-13T06:14:05.951Z,0.55
2023-03-13T06:16:43.405Z,0.65
2023-03-13T06:19:23.532Z,0.79
2023-03-13T06:21:53.762Z,0.91
2023-03-13T06:24:22.688Z,0.97
2023-03-13T06:26:51.415Z,1.02
2023-03-13T06:29:24.046Z,1.06
2023-03-13T06:31:53.678Z,1.09
2023-03-13T06:34:22.831Z,1.15
2023-03-13T06:36:51.484Z,1.25
2023-03-13T06:39:20.400Z,1.36
2023-03-13T06:41:49.531Z,1.49
2023-03-13T06:44:19.061Z,1.63
2023-03-13T06:46:50.111Z,1.75
2023-03-13T06:49:20.062Z,1.92
2023-03-13T06:51:53.832Z,2.05
2023-03-13T06:54:23.619Z,2.10
2023-03-13T06:56:54.150Z,2.22
2023-03-13T06:59:25.253Z,2.35
2023-03-13T07:01:54.893Z,2.45
2023-03-13T07:04:34.596Z,2.54
2023-03-13T07:07:07.561Z,2.65
2023-03-13T07:09:36.213Z,2.85
2023-03-13T07:12:05.848Z,3.06
2023-03-13T07:14:35.746Z,3.25
2023-03-13T07:17:04.598Z,3.35
2023-03-13T07:19:33.528Z,3.46
2023-03-13T07:22:02.296Z,3.61
2023-03-13T07:24:32.555Z,3.79
2023-03-13T07:27:07.430Z,3.91
2023-03-13T07:29:36.713Z,4.09
2023-03-13T07:32:06.487Z,4.23
2023-03-13T07:34:35.212Z,4.26
2023-03-13T07:37:05.011Z,4.30
2023-03-13T07:39:34.472Z,4.56
2023-03-13T07:42:07.577Z,4.80
2023-03-13T07:44:38.812Z,4.98
2023-03-13T07:47:07.776Z,5.00
2023-03-13T07:49:41.476Z,5.05
2023-03-13T07:52:10.453Z,5.20
2023-03-13T07:54:43.032Z,5.31
2023-03-13T07:57:13.462Z,5.41
2023-03-13T07:59:45.527Z,5.47
2023-03-13T08:02:22.670Z,5.38
2023-03-13T08:04:54.490Z,5.29
2023-03-13T08:07:23.564Z,5.20
2023-03-13T08:09:52.391Z,5.16
2023-03-13T08:12:23.723Z,5.21
2023-03-13T08:14:52.515Z,5.29
2023-03-13T08:17:22.911Z,5.46
2023-03-13T08:19:53.252Z,5.56
2023-03-13T08:22:22.171Z,5.58
2023-03-13T08:24:50.653Z,5.64
2023-03-13T08:27:20.677Z,5.64
2023-03-13T08:29:49.280Z,5.63
2023-03-13T08:32:22.457Z,5.55
2023-03-13T08:34:51.625Z,5.60
2023-03-13T08:37:20.074Z,5.60
2023-03-13T08:39:49.258Z,5.58
2023-03-13T08:42:18.299Z,5.59
2023-03-13T08:44:48.610Z,5.60
2023-03-13T08:47:18.817Z,5.65
2023-03-13T08:49:47.342Z,5.88
2023-03-13T08:52:15.969Z,6.01
2023-03-13T08:54:44.510Z,6.05
2023-03-13T08:57:12.997Z,6.15
2023-03-13T08:59:42.041Z,6.09
2023-03-13T09:02:19.135Z,6.05
2023-03-13T09:04:48.846Z,6.00
2023-03-13T09:07:17.583Z,5.98
2023-03-13T09:09:46.053Z,6.09
2023-03-13T09:12:29.640Z,6.16
2023-03-13T09:15:05.878Z,6.31
2023-03-13T09:17:36.499Z,6.43
2023-03-13T09:20:06.444Z,6.56
2023-03-13T09:22:35.629Z,6.62
2023-03-13T09:25:04.322Z,6.62
2023-03-13T09:27:41.478Z,6.67
2023-03-13T09:30:12.218Z,6.87
2023-03-13T09:32:40.958Z,7.22
2023-03-13T09:35:09.984Z,7.53
2023-03-13T09:37:38.535Z,7.72
2023-03-13T09:40:10.717Z,7.78
2023-03-13T09:42:46.874Z,7.83
2023-03-13T09:45:36.556Z,8.01
2023-03-13T09:48:39.459Z,8.20
2023-03-13T09:51:21.445Z,8.41
2023-03-13T09:53:55.192Z,8.44
2023-03-13T09:56:25.679Z,8.30
2023-03-13T09:58:56.580Z,8.08
2023-03-13T10:01:28.984Z,7.90
2023-03-13T10:04:41.915Z,7.79
2023-03-13T10:07:13.377Z,7.76
2023-03-13T10:09:43.396Z,7.77
2023-03-13T10:12:22.003Z,7.77
2023-03-13T10:15:14.197Z,8.03
2023-03-13T10:17:42.910Z,8.26
2023-03-13T10:20:17.454Z,8.31
2023-03-13T10:22:49.527Z,7.97
2023-03-13T10:25:34.715Z,7.84
2023-03-13T10:28:05.369Z,8.10
2023-03-13T10:30:35.981Z,8.12
2023-03-13T10:33:08.472Z,8.21
2023-03-13T10:35:39.869Z,8.17
2023-03-13T10:38:16.340Z,8.12
2023-03-13T10:41:01.899Z,8.09
2023-03-13T10:43:31.236Z,8.22
2023-03-13T10:46:24.656Z,8.19
2023-03-13T10:48:55.531Z,8.12
2023-03-13T10:51:31.986Z,8.07
2023-03-13T10:54:01.071Z,8.08
2023-03-13T10:56:30.546Z,8.15
2023-03-13T10:58:59.282Z,8.13
2023-03-13T11:01:40.014Z,8.14
2023-03-13T11:04:34.967Z,8.08
2023-03-13T11:07:16.280Z,8.13
2023-03-13T11:10:19.033Z,8.44
2023-03-13T11:12:55.528Z,8.73
2023-03-13T11:15:52.618Z,8.83
2023-03-13T11:18:32.617Z,8.66
2023-03-13T11:21:17.549Z,8.40
2023-03-13T11:23:50.644Z,8.09
2023-03-13T11:26:22.844Z,7.95
2023-03-13T11:28:59.833Z,7.95
2023-03-13T11:31:34.431Z,8.01
2023-03-13T11:34:18.852Z,7.91
2023-03-13T11:36:56.556Z,7.70
2023-03-13T11:39:44.644Z,7.69
2023-03-13T11:42:40.095Z,7.65
2023-03-13T11:45:34.124Z,7.66
2023-03-13T11:48:09.073Z,7.79
2023-03-13T11:50:38.224Z,7.98
2023-03-13T11:53:10.328Z,8.21
2023-03-13T11:55:58.515Z,8.40
2023-03-13T11:58:49.756Z,8.61
2023-03-13T12:01:21.599Z,8.80
2023-03-13T12:04:00.652Z,8.98
2023-03-13T12:06:38.670Z,9.17
2023-03-13T12:09:13.041Z,9.07
2023-03-13T12:12:05.188Z,8.93
2023-03-13T12:14:57.039Z,8.69
2023-03-13T12:18:17.703Z,8.48
2023-03-13T12:21:05.889Z,8.39
2023-03-13T12:23:46.194Z,8.31
2023-03-13T12:26:15.848Z,8.31
2023-03-13T12:29:19.118Z,8.51
2023-03-13T12:32:25.620Z,8.78
2023-03-13T12:34:56.866Z,8.90
2023-03-13T12:37:45.944Z,8.90
2023-03-13T12:40:24.982Z,8.67
2023-03-13T12:43:03.323Z,8.41
2023-03-13T12:45:33.196Z,8.35
2023-03-13T12:48:14.583Z,8.36
2023-03-13T12:50:58.318Z,8.19
2023-03-13T12:53:51.345Z,7.96
2023-03-13T12:56:56.615Z,7.91
2023-03-13T12:59:31.626Z,7.86
2023-03-13T13:02:06.555Z,7.87
2023-03-13T13:04:42.997Z,7.87
2023-03-13T13:07:56.823Z,7.85
2023-03-13T13:10:27.046Z,7.93
2023-03-13T13:13:18.503Z,7.88
2023-03-13T13:16:06.270Z,7.91
2023-03-13T13:18:34.943Z,7.99
2023-03-13T13:21:03.383Z,8.15
2023-03-13T13:23:39.232Z,8.25
2023-03-13T13:26:37.731Z,8.18
2023-03-13T13:29:12.575Z,8.15
2023-03-13T13:31:51.923Z,8.11
2023-03-13T13:35:07.182Z,8.01
2023-03-13T13:37:35.961Z,8.03
2023-03-13T13:40:17.085Z,8.14
2023-03-13T13:42:52.694Z,8.14
2023-03-13T13:45:25.941Z,8.13
2023-03-13T13:48:34.125Z,8.14
2023-03-13T13:51:12.295Z,8.14
2023-03-13T13:53:47.936Z,8.18
2023-03-13T13:56:29.324Z,8.06
2023-03-13T13:59:25.113Z,7.95
2023-03-13T14:02:10.552Z,7.91
2023-03-13T14:04:53.926Z,7.97
2023-03-13T14:07:38.108Z,7.93
2023-03-13T14:10:59.956Z,7.90
2023-03-13T14:13:28.426Z,7.87
2023-03-13T14:15:56.882Z,7.89
2023-03-13T14:18:30.952Z,7.89
2023-03-13T14:21:01.654Z,7.88
2023-03-13T14:23:44.588Z,7.90
2023-03-13T14:26:13.182Z,8.09
2023-03-13T14:28:44.325Z,8.30
2023-03-13T14:31:22.331Z,8.32
2023-03-13T14:33:51.099Z,8.42
2023-03-13T14:36:19.739Z,8.51
2023-03-13T14:39:01.326Z,8.59
2023-03-13T14:41:31.538Z,8.63
2023-03-13T14:44:07.429Z,8.72
2023-03-13T14:46:36.443Z,8.70
2023-03-13T14:49:19.926Z,8.58
2023-03-13T14:52:23.516Z,8.17
2023-03-13T14:54:54.895Z,7.74
2023-03-13T14:57:28.013Z,7.42
2023-03-13T15:00:35.565Z,7.09
2023-03-13T15:03:17.132Z,6.84
2023-03-13T15:05:51.062Z,6.67
2023-03-13T15:08:22.382Z,6.51
2023-03-13T15:10:54.869Z,6.30
2023-03-13T15:13:25.736Z,6.07
2023-03-13T15:15:54.609Z,5.89
2023-03-13T15:18:32.065Z,5.72
2023-03-13T15:21:18.874Z,5.58
2023-03-13T15:23:56.780Z,5.42
2023-03-13T15:26:26.776Z,5.29
2023-03-13T15:31:38.442Z,5.03
2023-03-13T15:34:09.673Z,4.94
2023-03-13T15:36:41.990Z,4.85
2023-03-13T15:39:16.843Z,4.77
2023-03-13T15:41:45.705Z,4.66
2023-03-13T15:44:15.149Z,4.58
2023-03-13T15:46:44.027Z,4.49
2023-03-13T15:49:13.521Z,4.40
2023-03-13T15:51:44.139Z,4.31
2023-03-13T15:54:14.209Z,4.21
2023-03-13T15:56:43.043Z,4.08
2023-03-13T15:59:12.813Z,3.97
2023-03-13T16:01:44.643Z,3.85
2023-03-13T16:04:14.126Z,3.72
2023-03-13T16:06:43.372Z,3.60
2023-03-13T16:09:14.381Z,3.49
2023-03-13T16:11:42.982Z,3.38
2023-03-13T16:14:11.494Z,3.27
2023-03-13T16:16:45.962Z,3.17
2023-03-13T16:19:14.391Z,3.08
2023-03-13T16:21:48.525Z,2.99
2023-03-13T16:24:21.172Z,2.92
2023-03-13T16:26:51.206Z,2.85
2023-03-13T16:29:19.724Z,2.79
2023-03-13T16:31:48.528Z,2.72
2023-03-13T16:34:17.010Z,2.64
2023-03-13T16:36:45.453Z,2.56
2023-03-13T16:39:17.189Z,2.49
2023-03-13T16:41:46.443Z,2.43
2023-03-13T16:44:18.720Z,2.37
2023-03-13T16:47:02.800Z,2.33
2023-03-13T16:49:34.035Z,2.28
2023-03-13T16:52:02.764Z,2.23
2023-03-13T16:54:31.968Z,2.19
2023-03-13T16:57:04.622Z,2.14
2023-03-13T16:59:33.039Z,2.09
2023-03-13T17:02:02.460Z,2.04
2023-03-13T17:04:31.834Z,1.99
2023-03-13T17:07:00.947Z,1.95
2023-03-13T17:09:35.823Z,1.90
2023-03-13T17:12:05.008Z,1.87
2023-03-13T17:14:33.443Z,1.84
2023-03-13T17:17:04.880Z,1.79
2023-03-13T17:19:35.135Z,1.75
2023-03-13T17:22:04.329Z,1.71
2023-03-13T17:24:32.746Z,1.67
2023-03-13T17:27:04.538Z,1.63
2023-03-13T17:29:34.124Z,1.59
2023-03-13T17:32:04.146Z,1.53
2023-03-13T17:34:34.158Z,1.46
2023-03-13T17:37:05.122Z,1.43
2023-03-13T17:39:33.781Z,1.39
2023-03-13T17:42:05.775Z,1.34
2023-03-13T17:44:34.554Z,1.30
2023-03-13T17:47:02.959Z,1.28
2023-03-13T17:49:32.553Z,1.26
2023-03-13T17:52:00.953Z,1.24
2023-03-13T17:54:29.868Z,1.20
2023-03-13T17:56:58.255Z,1.18
2023-03-13T17:59:29.499Z,1.16
2023-03-13T18:01:58.965Z,1.11
2023-03-13T18:04:29.060Z,1.08
2023-03-13T18:06:58.352Z,1.04
2023-03-13T18:09:26.759Z,1.01
2023-03-13T18:11:55.788Z,0.97
2023-03-13T18:14:25.193Z,0.91
2023-03-13T18:16:57.394Z,0.86
2023-03-13T18:19:27.159Z,0.81
2023-03-13T18:21:56.057Z,0.79
2023-03-13T18:24:28.660Z,0.77
2023-03-13T18:26:57.377Z,0.74
2023-03-13T18:29:29.536Z,0.69
2023-03-13T18:32:00.722Z,0.64
2023-03-13T18:34:29.614Z,0.58
2023-03-13T18:37:11.930Z,0.51
2023-03-13T18:39:41.812Z,0.46
2023-03-13T18:42:10.885Z,0.43
2023-03-13T18:44:40.355Z,0.43
2023-03-13T18:47:13.184Z,0.42
2023-03-13T18:49:41.748Z,0.43
2023-03-13T18:52:11.155Z,0.43
2023-03-13T18:54:45.263Z,0.43
2023-03-13T18:57:15.499Z,0.43
2023-03-13T18:59:44.297Z,0.43
2023-03-13T19:02:18.062Z,0.43
2023-03-13T19:04:47.369Z,0.44
2023-03-13T19:07:26.484Z,0.44
2023-03-13T19:09:55.056Z,0.44
2023-03-13T19:12:23.752Z,0.42
2023-03-13T19:14:53.448Z,0.41
2023-03-13T19:17:27.214Z,0.41
2023-03-13T19:19:57.640Z,0.38
2023-03-13T19:22:26.689Z,0.35
2023-03-13T19:24:55.936Z,0.34
2023-03-13T19:27:25.787Z,0.32
2023-03-13T19:29:54.495Z,0.29
2023-03-13T19:32:23.055Z,0.26
2023-03-13T19:34:52.087Z,0.24
2023-03-13T19:37:21.113Z,0.23
2023-03-13T19:39:51.017Z,0.21
2023-03-13T19:42:19.769Z,0.20
2023-03-13T19:44:50.635Z,0.20
2023-03-13T19:47:19.196Z,0.21
2023-03-13T19:49:50.165Z,0.22
2023-03-13T19:52:19.561Z,0.24
2023-03-13T19:54:48.468Z,0.24
2023-03-13T19:57:18.143Z,0.24
2023-03-13T19:59:47.326Z,0.23
2023-03-13T20:02:17.989Z,0.20
2023-03-13T20:04:46.506Z,0.18
2023-03-13T20:07:14.958Z,0.15
2023-03-13T20:09:48.930Z,0.12
2023-03-13T20:12:17.697Z,0.08
2023-03-13T20:14:47.046Z,0.06
2023-03-13T20:17:15.445Z,0.03
2023-03-13T20:19:43.966Z,-0.02
2023-03-13T20:22:14.414Z,-0.06
2023-03-13T20:24:43.729Z,-0.10
2023-03-13T20:27:13.321Z,-0.12
2023-03-13T20:29:41.746Z,-0.16
2023-03-13T20:32:11.631Z,-0.18
2023-03-13T20:34:40.118Z,-0.21
2023-03-13T20:37:08.605Z,-0.24
2023-03-13T20:39:37.731Z,-0.25
2023-03-13T20:42:10.504Z,-0.26
2023-03-13T20:44:39.009Z,-0.28
2023-03-13T20:47:07.632Z,-0.29
2023-03-13T20:49:36.181Z,-0.30
2023-03-13T20:52:05.795Z,-0.30
2023-03-13T20:54:34.820Z,-0.29
2023-03-13T20:57:08.978Z,-0.28
2023-03-13T20:59:38.646Z,-0.27
2023-03-13T21:02:07.364Z,-0.28
2023-03-13T21:04:38.015Z,-0.29
2023-03-13T21:07:06.731Z,-0.31
2023-03-13T21:09:36.952Z,-0.33
2023-03-13T21:12:05.674Z,-0.37
2023-03-13T21:14:36.605Z,-0.41
2023-03-13T21:17:05.147Z,-0.45
2023-03-13T21:19:34.460Z,-0.50
2023-03-13T21:22:03.322Z,-0.53
2023-03-13T21:24:33.755Z,-0.57
2023-03-13T21:27:02.196Z,-0.62
2023-03-13T21:29:37.849Z,-0.67
2023-03-13T21:32:07.717Z,-0.72
2023-03-13T21:34:36.160Z,-0.75
2023-03-13T21:37:06.046Z,-0.77
2023-03-13T21:39:35.210Z,-0.80
2023-03-13T21:42:04.533Z,-0.82
2023-03-13T21:44:34.501Z,-0.82
2023-03-13T21:47:02.957Z,-0.82
2023-03-13T21:49:32.890Z,-0.81
2023-03-13T21:52:01.350Z,-0.80
2023-03-13T21:54:30.169Z,-0.79
2023-03-13T21:56:58.862Z,-0.80
2023-03-13T21:59:35.384Z,-0.83
2023-03-13T22:02:04.407Z,-0.84
2023-03-13T22:04:33.730Z,-0.86
2023-03-13T22:07:03.130Z,-0.88
2023-03-13T22:09:33.156Z,-0.91
2023-03-13T22:12:05.630Z,-0.92
2023-03-13T22:14:34.032Z,-0.94
2023-03-13T22:17:02.471Z,-0.96
2023-03-13T22:19:32.069Z,-0.98
2023-03-13T22:22:02.440Z,-1.01
2023-03-13T22:24:30.864Z,-1.02
2023-03-13T22:26:59.255Z,-1.05
2023-03-13T22:29:30.704Z,-1.09
2023-03-13T22:31:59.338Z,-1.11
2023-03-13T22:34:28.117Z,-1.13
2023-03-13T22:36:58.760Z,-1.15
2023-03-13T22:39:28.225Z,-1.15
2023-03-13T22:41:56.733Z,-1.13
2023-03-13T22:44:26.251Z,-1.11
2023-03-13T22:46:54.977Z,-1.10
2023-03-13T22:49:23.929Z,-1.09
2023-03-13T22:51:52.503Z,-1.08
2023-03-13T22:54:20.938Z,-1.07
2023-03-13T22:56:49.642Z,-1.07
2023-03-13T22:59:18.320Z,-1.08
2023-03-13T23:01:47.090Z,-1.11
2023-03-13T23:04:15.736Z,-1.15
2023-03-13T23:06:44.129Z,-1.18
2023-03-13T23:09:15.311Z,-1.20
2023-03-13T23:11:44.164Z,-1.22
2023-03-13T23:14:14.066Z,-1.25
2023-03-13T23:16:43.035Z,-1.27
2023-03-13T23:19:11.697Z,-1.29
2023-03-13T23:21:40.763Z,-1.31
2023-03-13T23:24:09.433Z,-1.33
2023-03-13T23:26:37.903Z,-1.36
2023-03-13T23:29:06.615Z,-1.39
2023-03-13T23:31:35.649Z,-1.40
2023-03-13T23:34:04.375Z,-1.42
2023-03-13T23:36:33.423Z,-1.43
2023-03-13T23:39:05.503Z,-1.42
2023-03-13T23:41:35.114Z,-1.42
2023-03-13T23:44:03.610Z,-1.41
2023-03-13T23:46:32.540Z,-1.40
2023-03-13T23:49:01.267Z,-1.39
2023-03-13T23:51:32.023Z,-1.39
2023-03-13T23:54:00.658Z,-1.41
2023-03-13T23:56:30.855Z,-1.42
2023-03-13T23:58:59.594Z,-1.44
